createdAt,value
2018-08-09T00:00:30.643Z,1010.89
2018-08-09T00:01:39.309Z,1010.89
2018-08-09T00:02:47.942Z,1010.87
2018-08-09T00:03:56.578Z,1010.8
2018-08-09T00:05:05.230Z,1010.78
2018-08-09T00:06:13.867Z,1010.77
2018-08-09T00:07:22.523Z,1010.75
2018-08-09T00:08:31.170Z,1010.78
2018-08-09T00:09:40.082Z,1010.78
2018-08-09T00:10:48.729Z,1010.74
2018-08-09T00:11:57.394Z,1010.72
2018-08-09T00:13:06.039Z,1010.75
2018-08-09T00:14:14.681Z,1010.76
2018-08-09T00:15:23.325Z,1010.76
2018-08-09T00:16:32.499Z,1010.74
2018-08-09T00:17:41.155Z,1010.76
2018-08-09T00:18:49.799Z,1010.7
2018-08-09T00:19:58.990Z,1010.71
2018-08-09T00:21:07.627Z,1010.69
2018-08-09T00:22:16.284Z,1010.7
2018-08-09T00:23:24.929Z,1010.72
2018-08-09T00:24:33.581Z,1010.75
2018-08-09T00:25:42.482Z,1010.75
2018-08-09T00:26:51.138Z,1010.76
2018-08-09T00:27:59.785Z,1010.8
2018-08-09T00:29:08.433Z,1010.77
2018-08-09T00:30:17.072Z,1010.82
2018-08-09T00:31:25.720Z,1010.83
2018-08-09T00:32:34.371Z,1010.78
2018-08-09T00:33:43.020Z,1010.81
2018-08-09T00:34:51.937Z,1010.78
2018-08-09T00:36:00.576Z,1010.77
2018-08-09T00:37:09.227Z,1010.79
2018-08-09T00:38:18.145Z,1010.77
2018-08-09T00:39:27.332Z,1010.77
2018-08-09T00:40:36.495Z,1010.76
2018-08-09T00:41:45.149Z,1010.76
2018-08-09T00:42:53.788Z,1010.75
2018-08-09T00:44:02.446Z,1010.73
2018-08-09T00:45:11.083Z,1010.74
2018-08-09T00:46:19.730Z,1010.74
2018-08-09T00:47:28.381Z,1010.74
2018-08-09T00:48:37.031Z,1010.7
2018-08-09T00:49:45.944Z,1010.73
2018-08-09T00:50:54.597Z,1010.72
2018-08-09T00:52:03.237Z,1010.7
2018-08-09T00:53:11.881Z,1010.69
2018-08-09T00:54:20.536Z,1010.67
2018-08-09T00:55:29.185Z,1010.64
2018-08-09T00:56:38.397Z,1010.65
2018-08-09T00:57:47.040Z,1010.66
2018-08-09T00:58:55.692Z,1010.68
2018-08-09T01:00:04.611Z,1010.71
2018-08-09T01:01:13.263Z,1010.73
2018-08-09T01:02:21.904Z,1010.77
2018-08-09T01:03:30.556Z,1010.77
2018-08-09T01:04:39.203Z,1010.76
2018-08-09T01:05:47.851Z,1010.76
2018-08-09T01:06:56.493Z,1010.78
2018-08-09T01:08:05.140Z,1010.76
2018-08-09T01:09:13.791Z,1010.73
2018-08-09T01:10:22.710Z,1010.74
2018-08-09T01:11:31.363Z,1010.7
2018-08-09T01:12:40.002Z,1010.7
2018-08-09T01:13:48.652Z,1010.74
2018-08-09T01:14:57.299Z,1010.7
2018-08-09T01:16:05.950Z,1010.68
2018-08-09T01:17:14.596Z,1010.66
2018-08-09T01:18:23.242Z,1010.66
2018-08-09T01:19:31.889Z,1010.66
2018-08-09T01:20:40.805Z,1010.62
2018-08-09T01:21:49.773Z,1010.61
2018-08-09T01:22:58.422Z,1010.6
2018-08-09T01:24:07.067Z,1010.62
2018-08-09T01:25:15.719Z,1010.6
2018-08-09T01:26:24.635Z,1010.6
2018-08-09T01:27:33.289Z,1010.56
2018-08-09T01:28:41.928Z,1010.56
2018-08-09T01:29:50.576Z,1010.61
2018-08-09T01:30:59.225Z,1010.56
2018-08-09T01:32:07.871Z,1010.59
2018-08-09T01:33:16.521Z,1010.64
2018-08-09T01:34:25.159Z,1010.61
2018-08-09T01:35:33.810Z,1010.64
2018-08-09T01:36:42.456Z,1010.64
2018-08-09T01:37:51.104Z,1010.65
2018-08-09T01:38:59.744Z,1010.67
2018-08-09T01:40:08.668Z,1010.62
2018-08-09T01:41:17.306Z,1010.64
2018-08-09T01:42:25.959Z,1010.59
2018-08-09T01:43:34.600Z,1010.54
2018-08-09T01:44:43.247Z,1010.47
2018-08-09T01:45:52.160Z,1010.44
2018-08-09T01:47:00.811Z,1010.46
2018-08-09T01:48:09.462Z,1010.44
2018-08-09T01:49:18.124Z,1010.43
2018-08-09T01:50:26.750Z,1010.4
2018-08-09T01:51:35.393Z,1010.38
2018-08-09T01:52:44.321Z,1010.34
2018-08-09T01:53:52.957Z,1010.32
2018-08-09T01:55:01.608Z,1010.36
2018-08-09T01:56:10.251Z,1010.37
2018-08-09T01:57:18.911Z,1010.38
2018-08-09T01:58:27.554Z,1010.33
2018-08-09T01:59:36.498Z,1010.38
2018-08-09T02:00:45.378Z,1010.37
2018-08-09T02:01:54.036Z,1010.38
2018-08-09T02:03:02.680Z,1010.4
2018-08-09T02:04:11.323Z,1010.37
2018-08-09T02:05:20.231Z,1010.38
2018-08-09T02:06:28.875Z,1010.37
2018-08-09T02:07:37.533Z,1010.35
2018-08-09T02:08:46.445Z,1010.36
2018-08-09T02:09:55.400Z,1010.29
2018-08-09T02:11:04.039Z,1010.29
2018-08-09T02:12:12.959Z,1010.26
2018-08-09T02:13:21.602Z,1010.27
2018-08-09T02:14:30.255Z,1010.22
2018-08-09T02:15:38.896Z,1010.18
2018-08-09T02:16:47.561Z,1010.19
2018-08-09T02:17:56.205Z,1010.24
2018-08-09T02:19:04.859Z,1010.26
2018-08-09T02:20:13.494Z,1010.29
2018-08-09T02:21:22.144Z,1010.3
2018-08-09T02:22:30.800Z,1010.32
2018-08-09T02:23:39.444Z,1010.31
2018-08-09T02:24:48.096Z,1010.32
2018-08-09T02:25:56.729Z,1010.29
2018-08-09T02:27:05.645Z,1010.34
2018-08-09T02:28:14.550Z,1010.36
2018-08-09T02:29:23.208Z,1010.32
2018-08-09T02:30:31.840Z,1010.31
2018-08-09T02:31:40.499Z,1010.3
2018-08-09T02:32:49.412Z,1010.29
2018-08-09T02:33:58.067Z,1010.28
2018-08-09T02:35:06.708Z,1010.28
2018-08-09T02:36:15.367Z,1010.25
2018-08-09T02:37:24.012Z,1010.2
2018-08-09T02:38:32.684Z,1010.24
2018-08-09T02:39:41.855Z,1010.22
2018-08-09T02:40:50.504Z,1010.24
2018-08-09T02:41:59.152Z,1010.27
2018-08-09T02:43:08.333Z,1010.28
2018-08-09T02:44:16.990Z,1010.28
2018-08-09T02:45:25.635Z,1010.24
2018-08-09T02:46:34.598Z,1010.26
2018-08-09T02:47:43.205Z,1010.24
2018-08-09T02:48:51.845Z,1010.19
2018-08-09T02:50:00.503Z,1010.15
2018-08-09T02:51:09.405Z,1010.12
2018-08-09T02:52:18.348Z,1010.16
2018-08-09T02:53:27.002Z,1010.14
2018-08-09T02:54:35.651Z,1010.15
2018-08-09T02:55:44.296Z,1010.16
2018-08-09T02:56:53.232Z,1010.17
2018-08-09T02:58:01.861Z,1010.11
2018-08-09T02:59:10.504Z,1010.14
2018-08-09T03:00:19.148Z,1010.11
2018-08-09T03:01:27.792Z,1010.13
2018-08-09T03:02:36.449Z,1010.1
2018-08-09T03:03:45.637Z,1010.1
2018-08-09T03:04:54.287Z,1010.09
2018-08-09T03:06:03.451Z,1010.12
2018-08-09T03:07:12.111Z,1010.08
2018-08-09T03:08:21.033Z,1010.04
2018-08-09T03:09:29.949Z,1009.98
2018-08-09T03:10:38.598Z,1009.95
2018-08-09T03:11:47.249Z,1009.92
2018-08-09T03:12:55.893Z,1009.93
2018-08-09T03:14:04.542Z,1009.94
2018-08-09T03:15:13.183Z,1009.97
2018-08-09T03:16:21.832Z,1010.05
2018-08-09T03:17:30.483Z,1010.05
2018-08-09T03:18:39.134Z,1010.12
2018-08-09T03:19:47.787Z,1010.12
2018-08-09T03:20:56.424Z,1010.2
2018-08-09T03:22:05.077Z,1010.14
2018-08-09T03:23:13.717Z,1010.16
2018-08-09T03:24:22.432Z,1010.13
2018-08-09T03:25:31.013Z,1010.08
2018-08-09T03:26:39.664Z,1010.07
2018-08-09T03:27:48.304Z,1010.05
2018-08-09T03:28:56.960Z,1010.1
2018-08-09T03:30:05.594Z,1010.1
2018-08-09T03:31:14.246Z,1010.11
2018-08-09T03:32:22.900Z,1010.13
2018-08-09T03:33:31.557Z,1010.19
2018-08-09T03:34:40.201Z,1010.15
2018-08-09T03:35:48.842Z,1010.15
2018-08-09T03:36:57.757Z,1010.11
2018-08-09T03:38:06.399Z,1010.11
2018-08-09T03:39:15.054Z,1010.07
2018-08-09T03:40:23.962Z,1010.02
2018-08-09T03:41:32.608Z,1009.97
2018-08-09T03:42:41.252Z,1009.98
2018-08-09T03:43:49.904Z,1009.97
2018-08-09T03:44:58.551Z,1009.96
2018-08-09T03:46:07.207Z,1009.97
2018-08-09T03:47:16.111Z,1009.99
2018-08-09T03:48:24.759Z,1009.99
2018-08-09T03:49:33.406Z,1010.02
2018-08-09T03:50:42.055Z,1009.97
2018-08-09T03:51:50.704Z,1010
2018-08-09T03:52:59.612Z,1009.97
2018-08-09T03:54:08.261Z,1009.96
2018-08-09T03:55:16.907Z,1009.93
2018-08-09T03:56:25.817Z,1009.93
2018-08-09T03:57:34.459Z,1009.94
2018-08-09T03:58:43.106Z,1009.95
2018-08-09T03:59:51.754Z,1009.95
2018-08-09T04:01:00.407Z,1009.95
2018-08-09T04:02:09.307Z,1009.93
2018-08-09T04:03:18.221Z,1009.96
2018-08-09T04:04:26.865Z,1009.94
2018-08-09T04:05:35.517Z,1009.96
2018-08-09T04:06:44.159Z,1009.94
2018-08-09T04:07:52.806Z,1009.95
2018-08-09T04:09:01.450Z,1010
2018-08-09T04:10:10.101Z,1010.05
2018-08-09T04:11:18.745Z,1010.04
2018-08-09T04:12:27.653Z,1009.98
2018-08-09T04:13:36.566Z,1009.97
2018-08-09T04:14:45.210Z,1009.95
2018-08-09T04:15:53.859Z,1009.93
2018-08-09T04:17:02.513Z,1009.91
2018-08-09T04:18:11.152Z,1009.89
2018-08-09T04:19:19.792Z,1009.87
2018-08-09T04:20:28.443Z,1009.85
2018-08-09T04:21:37.090Z,1009.86
2018-08-09T04:22:45.742Z,1009.93
2018-08-09T04:23:54.383Z,1009.98
2018-08-09T04:25:03.034Z,1010
2018-08-09T04:26:11.680Z,1010
2018-08-09T04:27:20.331Z,1010.01
2018-08-09T04:28:28.974Z,1010.06
2018-08-09T04:29:37.626Z,1010.05
2018-08-09T04:30:46.267Z,1010.07
2018-08-09T04:31:54.914Z,1010.02
2018-08-09T04:33:03.818Z,1010.03
2018-08-09T04:34:12.459Z,1010.03
2018-08-09T04:35:21.106Z,1010.05
2018-08-09T04:36:29.751Z,1010.08
2018-08-09T04:37:38.668Z,1010.1
2018-08-09T04:38:47.309Z,1010.13
2018-08-09T04:39:55.952Z,1010.13
2018-08-09T04:41:04.599Z,1010.14
2018-08-09T04:42:13.242Z,1010.18
2018-08-09T04:43:21.899Z,1010.16
2018-08-09T04:44:30.542Z,1010.15
2018-08-09T04:45:39.467Z,1010.15
2018-08-09T04:46:48.106Z,1010.17
2018-08-09T04:47:56.752Z,1010.19
2018-08-09T04:49:05.403Z,1010.2
2018-08-09T04:50:14.052Z,1010.18
2018-08-09T04:51:22.700Z,1010.16
2018-08-09T04:52:31.336Z,1010.14
2018-08-09T04:53:39.987Z,1010.11
2018-08-09T04:54:48.631Z,1010.16
2018-08-09T04:55:57.284Z,1010.16
2018-08-09T04:57:06.184Z,1010.23
2018-08-09T04:58:14.843Z,1010.23
2018-08-09T04:59:23.505Z,1010.26
2018-08-09T05:00:32.143Z,1010.25
2018-08-09T05:01:40.769Z,1010.27
2018-08-09T05:02:49.418Z,1010.29
2018-08-09T05:03:58.062Z,1010.31
2018-08-09T05:05:06.718Z,1010.35
2018-08-09T05:06:15.363Z,1010.35
2018-08-09T05:07:24.276Z,1010.36
2018-08-09T05:08:32.920Z,1010.33
2018-08-09T05:09:41.563Z,1010.28
2018-08-09T05:10:50.220Z,1010.27
2018-08-09T05:11:58.859Z,1010.22
2018-08-09T05:13:07.773Z,1010.19
2018-08-09T05:14:16.410Z,1010.17
2018-08-09T05:15:25.070Z,1010.17
2018-08-09T05:16:33.713Z,1010.13
2018-08-09T05:17:42.364Z,1010.14
2018-08-09T05:18:51.008Z,1010.11
2018-08-09T05:19:59.662Z,1010.12
2018-08-09T05:21:08.831Z,1010.12
2018-08-09T05:22:17.480Z,1010.16
2018-08-09T05:23:26.118Z,1010.16
2018-08-09T05:24:34.766Z,1010.17
2018-08-09T05:25:43.683Z,1010.13
2018-08-09T05:26:52.332Z,1010.14
2018-08-09T05:28:00.981Z,1010.11
2018-08-09T05:29:09.617Z,1010.14
2018-08-09T05:30:18.545Z,1010.11
2018-08-09T05:31:27.449Z,1010.12
2018-08-09T05:32:36.113Z,1010.11
2018-08-09T05:33:44.741Z,1010.11
2018-08-09T05:34:53.393Z,1010.12
2018-08-09T05:36:02.037Z,1010.15
2018-08-09T05:37:10.692Z,1010.13
2018-08-09T05:38:19.333Z,1010.13
2018-08-09T05:39:27.977Z,1010.06
2018-08-09T05:40:36.624Z,1010.01
2018-08-09T05:41:45.276Z,1010
2018-08-09T05:42:53.915Z,1010.01
2018-08-09T05:44:02.564Z,1009.97
2018-08-09T05:45:11.231Z,1009.95
2018-08-09T05:46:19.856Z,1009.91
2018-08-09T05:47:28.506Z,1009.88
2018-08-09T05:48:37.153Z,1009.84
2018-08-09T05:49:45.805Z,1009.79
2018-08-09T05:50:54.445Z,1009.74
2018-08-09T05:52:03.096Z,1009.71
2018-08-09T05:53:11.761Z,1009.68
2018-08-09T05:54:21.116Z,1009.73
2018-08-09T05:55:29.755Z,1009.74
2018-08-09T05:56:38.410Z,1009.78
2018-08-09T05:57:47.317Z,1009.78
2018-08-09T05:58:55.969Z,1009.79
2018-08-09T06:00:04.610Z,1009.81
2018-08-09T06:01:13.260Z,1009.85
2018-08-09T06:02:21.906Z,1009.81
2018-08-09T06:03:30.555Z,1009.82
2018-08-09T06:04:39.203Z,1009.8
2018-08-09T06:05:47.918Z,1009.79
2018-08-09T06:06:56.841Z,1009.77
2018-08-09T06:08:05.750Z,1009.78
2018-08-09T06:09:14.934Z,1009.76
2018-08-09T06:10:23.568Z,1009.71
2018-08-09T06:11:32.215Z,1009.66
2018-08-09T06:12:40.863Z,1009.66
2018-08-09T06:13:49.517Z,1009.69
2018-08-09T06:14:58.430Z,1009.71
2018-08-09T06:16:07.082Z,1009.77
2018-08-09T06:17:15.728Z,1009.78
2018-08-09T06:18:24.642Z,1009.78
2018-08-09T06:19:33.287Z,1009.74
2018-08-09T06:20:42.203Z,1009.78
2018-08-09T06:21:50.848Z,1009.79
2018-08-09T06:22:59.496Z,1009.79
2018-08-09T06:24:08.148Z,1009.81
2018-08-09T06:25:16.798Z,1009.83
2018-08-09T06:26:25.490Z,1009.86
2018-08-09T06:27:34.092Z,1009.87
2018-08-09T06:28:42.762Z,1009.88
2018-08-09T06:29:51.743Z,1009.85
2018-08-09T06:31:00.393Z,1009.82
2018-08-09T06:32:09.036Z,1009.78
2018-08-09T06:33:17.991Z,1009.77
2018-08-09T06:34:26.601Z,1009.76
2018-08-09T06:35:35.253Z,1009.74
2018-08-09T06:36:43.893Z,1009.77
2018-08-09T06:37:52.542Z,1009.75
2018-08-09T06:39:01.190Z,1009.77
2018-08-09T06:40:09.836Z,1009.74
2018-08-09T06:41:18.481Z,1009.71
2018-08-09T06:42:27.133Z,1009.74
2018-08-09T06:43:35.781Z,1009.7
2018-08-09T06:44:44.694Z,1009.66
2018-08-09T06:45:53.341Z,1009.66
2018-08-09T06:47:01.995Z,1009.62
2018-08-09T06:48:10.643Z,1009.63
2018-08-09T06:49:19.554Z,1009.63
2018-08-09T06:50:28.198Z,1009.61
2018-08-09T06:51:36.850Z,1009.59
2018-08-09T06:52:45.760Z,1009.62
2018-08-09T06:53:54.408Z,1009.64
2018-08-09T06:55:03.056Z,1009.67
2018-08-09T06:56:11.712Z,1009.72
2018-08-09T06:57:20.358Z,1009.75
2018-08-09T06:58:29.007Z,1009.73
2018-08-09T06:59:37.658Z,1009.72
2018-08-09T07:00:46.301Z,1009.71
2018-08-09T07:01:54.947Z,1009.71
2018-08-09T07:03:03.593Z,1009.73
2018-08-09T07:04:12.247Z,1009.7
2018-08-09T07:05:20.891Z,1009.71
2018-08-09T07:06:29.541Z,1009.68
2018-08-09T07:07:38.184Z,1009.62
2018-08-09T07:08:46.845Z,1009.59
2018-08-09T07:09:55.481Z,1009.52
2018-08-09T07:11:04.130Z,1009.49
2018-08-09T07:12:12.776Z,1009.44
2018-08-09T07:13:21.692Z,1009.45
2018-08-09T07:14:30.597Z,1009.38
2018-08-09T07:15:39.243Z,1009.31
2018-08-09T07:16:47.890Z,1009.26
2018-08-09T07:17:56.536Z,1009.24
2018-08-09T07:19:05.190Z,1009.25
2018-08-09T07:20:13.845Z,1009.29
2018-08-09T07:21:22.828Z,1009.32
2018-08-09T07:22:31.474Z,1009.37
2018-08-09T07:23:40.125Z,1009.38
2018-08-09T07:24:48.774Z,1009.34
2018-08-09T07:25:57.422Z,1009.33
2018-08-09T07:27:06.067Z,1009.34
2018-08-09T07:28:14.718Z,1009.32
2018-08-09T07:29:23.362Z,1009.34
2018-08-09T07:30:32.013Z,1009.34
2018-08-09T07:31:40.655Z,1009.32
2018-08-09T07:32:49.303Z,1009.34
2018-08-09T07:33:57.950Z,1009.35
2018-08-09T07:35:06.596Z,1009.4
2018-08-09T07:36:15.244Z,1009.38
2018-08-09T07:37:23.888Z,1009.38
2018-08-09T07:38:32.538Z,1009.36
2018-08-09T07:39:41.229Z,1009.34
2018-08-09T07:40:50.173Z,1009.35
2018-08-09T07:41:58.811Z,1009.36
2018-08-09T07:43:07.467Z,1009.38
2018-08-09T07:44:16.110Z,1009.43
2018-08-09T07:45:24.768Z,1009.45
2018-08-09T07:46:33.661Z,1009.47
2018-08-09T07:47:42.311Z,1009.45
2018-08-09T07:48:51.070Z,1009.46
2018-08-09T07:49:59.615Z,1009.44
2018-08-09T07:51:08.260Z,1009.42
2018-08-09T07:52:16.908Z,1009.39
2018-08-09T07:53:25.553Z,1009.35
2018-08-09T07:54:34.199Z,1009.33
2018-08-09T07:55:42.857Z,1009.35
2018-08-09T07:56:51.504Z,1009.35
2018-08-09T07:58:00.160Z,1009.35
2018-08-09T07:59:09.072Z,1009.36
2018-08-09T08:00:17.727Z,1009.36
2018-08-09T08:01:26.384Z,1009.4
2018-08-09T08:02:35.040Z,1009.38
2018-08-09T08:03:43.680Z,1009.41
2018-08-09T08:04:52.338Z,1009.34
2018-08-09T08:06:01.026Z,1009.35
2018-08-09T08:07:09.637Z,1009.36
2018-08-09T08:08:18.302Z,1009.35
2018-08-09T08:09:26.932Z,1009.33
2018-08-09T08:10:35.589Z,1009.33
2018-08-09T08:11:44.509Z,1009.3
2018-08-09T08:12:53.162Z,1009.26
2018-08-09T08:14:02.062Z,1009.28
2018-08-09T08:15:10.819Z,1009.26
2018-08-09T08:16:19.363Z,1009.23
2018-08-09T08:17:28.023Z,1009.19
2018-08-09T08:18:36.671Z,1009.15
2018-08-09T08:19:45.587Z,1009.13
2018-08-09T08:20:54.231Z,1009.15
2018-08-09T08:22:02.891Z,1009.08
2018-08-09T08:23:11.536Z,1008.98
2018-08-09T08:24:20.449Z,1008.88
2018-08-09T08:25:29.099Z,1008.84
2018-08-09T08:26:37.813Z,1008.75
2018-08-09T08:27:46.409Z,1008.67
2018-08-09T08:28:55.318Z,1008.65
2018-08-09T08:30:03.964Z,1008.57
2018-08-09T08:31:12.610Z,1008.57
2018-08-09T08:32:21.269Z,1008.64
2018-08-09T08:33:29.912Z,1008.67
2018-08-09T08:34:38.623Z,1008.72
2018-08-09T08:35:47.206Z,1008.75
2018-08-09T08:36:55.867Z,1008.73
2018-08-09T08:38:04.518Z,1008.71
2018-08-09T08:39:13.472Z,1008.69
2018-08-09T08:40:22.081Z,1008.69
2018-08-09T08:41:30.767Z,1008.68
2018-08-09T08:42:39.827Z,1008.67
2018-08-09T08:43:48.480Z,1008.67
2018-08-09T08:44:57.125Z,1008.66
2018-08-09T08:46:05.778Z,1008.67
2018-08-09T08:47:14.428Z,1008.62
2018-08-09T08:48:23.081Z,1008.6
2018-08-09T08:49:31.735Z,1008.61
2018-08-09T08:50:40.381Z,1008.6
2018-08-09T08:51:49.029Z,1008.49
2018-08-09T08:52:57.680Z,1008.5
2018-08-09T08:54:06.336Z,1008.49
2018-08-09T08:55:15.290Z,1008.52
2018-08-09T08:56:23.895Z,1008.51
2018-08-09T08:57:32.812Z,1008.42
2018-08-09T08:58:41.468Z,1008.38
2018-08-09T08:59:50.128Z,1008.34
2018-08-09T09:00:59.126Z,1008.29
2018-08-09T09:02:07.724Z,1008.31
2018-08-09T09:03:16.947Z,1008.26
2018-08-09T09:04:25.704Z,1008.23
2018-08-09T09:05:34.733Z,1008.19
2018-08-09T09:06:43.376Z,1008.19
2018-08-09T09:07:52.023Z,1008.17
2018-08-09T09:09:00.678Z,1008.17
2018-08-09T09:10:09.431Z,1008.15
2018-08-09T09:11:18.097Z,1008.17
2018-08-09T09:12:26.729Z,1008.12
2018-08-09T09:13:35.415Z,1008.08
2018-08-09T09:14:44.366Z,1008.05
2018-08-09T09:15:53.281Z,1008.01
2018-08-09T09:17:01.928Z,1008.02
2018-08-09T09:18:10.591Z,1007.98
2018-08-09T09:19:19.306Z,1007.92
2018-08-09T09:20:27.908Z,1007.93
2018-08-09T09:21:36.808Z,1007.87
2018-08-09T09:22:45.466Z,1007.85
2018-08-09T09:23:54.118Z,1007.8
2018-08-09T09:25:02.769Z,1007.74
2018-08-09T09:26:11.423Z,1007.74
2018-08-09T09:27:20.074Z,1007.72
2018-08-09T09:28:28.729Z,1007.74
2018-08-09T09:29:39.170Z,1007.75
2018-08-09T09:30:47.830Z,1007.79
2018-08-09T09:31:56.476Z,1007.82
2018-08-09T09:33:05.420Z,1007.8
2018-08-09T09:34:14.175Z,1007.74
2018-08-09T09:35:23.098Z,1007.7
2018-08-09T09:36:31.747Z,1007.72
2018-08-09T09:37:40.398Z,1007.71
2018-08-09T09:38:49.052Z,1007.75
2018-08-09T09:39:57.712Z,1007.72
2018-08-09T09:41:06.362Z,1007.76
2018-08-09T09:42:15.015Z,1007.75
2018-08-09T09:43:23.662Z,1007.76
2018-08-09T09:44:32.311Z,1007.67
2018-08-09T09:45:41.248Z,1007.59
2018-08-09T09:46:49.894Z,1007.59
2018-08-09T09:47:58.812Z,1007.55
2018-08-09T09:49:07.453Z,1007.54
2018-08-09T09:50:16.115Z,1007.55
2018-08-09T09:51:24.761Z,1007.52
2018-08-09T09:52:33.423Z,1007.54
2018-08-09T09:53:42.589Z,1007.56
2018-08-09T09:54:51.255Z,1007.47
2018-08-09T09:56:00.270Z,1007.48
2018-08-09T09:57:08.871Z,1007.52
2018-08-09T09:58:17.519Z,1007.39
2018-08-09T09:59:26.172Z,1007.39
2018-08-09T10:00:34.828Z,1007.35
2018-08-09T10:01:43.516Z,1007.33
2018-08-09T10:02:52.538Z,1007.29
2018-08-09T10:04:01.183Z,1007.29
2018-08-09T10:05:09.839Z,1007.28
2018-08-09T10:06:18.486Z,1007.25
2018-08-09T10:07:27.215Z,1007.2
2018-08-09T10:08:35.792Z,1007.2
2018-08-09T10:09:44.456Z,1007.2
2018-08-09T10:10:53.368Z,1007.14
2018-08-09T10:12:02.030Z,1007.11
2018-08-09T10:13:10.946Z,1007.09
2018-08-09T10:14:19.600Z,1007.06
2018-08-09T10:15:28.253Z,1007.06
2018-08-09T10:16:36.912Z,1007.02
2018-08-09T10:17:45.562Z,1007.02
2018-08-09T10:18:54.207Z,1006.97
2018-08-09T10:20:02.858Z,1006.92
2018-08-09T10:21:11.515Z,1006.91
2018-08-09T10:22:20.435Z,1006.9
2018-08-09T10:23:29.083Z,1006.96
2018-08-09T10:24:38.004Z,1006.84
2018-08-09T10:25:46.650Z,1006.82
2018-08-09T10:26:55.312Z,1006.73
2018-08-09T10:28:03.960Z,1006.68
2018-08-09T10:29:12.620Z,1006.68
2018-08-09T10:30:21.272Z,1006.61
2018-08-09T10:31:29.933Z,1006.62
2018-08-09T10:32:38.583Z,1006.56
2018-08-09T10:33:47.232Z,1006.55
2018-08-09T10:34:55.894Z,1006.48
2018-08-09T10:36:04.545Z,1006.51
2018-08-09T10:37:13.194Z,1006.4
2018-08-09T10:38:21.843Z,1006.34
2018-08-09T10:39:30.498Z,1006.41
2018-08-09T10:40:39.160Z,1006.38
2018-08-09T10:41:47.809Z,1006.34
2018-08-09T10:42:56.470Z,1006.23
2018-08-09T10:44:05.114Z,1006.26
2018-08-09T10:45:13.776Z,1006.15
2018-08-09T10:46:22.425Z,1006.08
2018-08-09T10:47:31.356Z,1006
2018-08-09T10:48:40.000Z,1005.98
2018-08-09T10:49:48.667Z,1005.94
2018-08-09T10:50:57.313Z,1005.96
2018-08-09T10:52:05.966Z,1006.02
2018-08-09T10:53:14.612Z,1005.98
2018-08-09T10:54:23.280Z,1005.99
2018-08-09T10:55:31.932Z,1005.93
2018-08-09T10:56:40.919Z,1005.9
2018-08-09T10:57:49.573Z,1005.8
2018-08-09T10:58:58.222Z,1005.87
2018-08-09T11:00:06.878Z,1005.85
2018-08-09T11:01:15.528Z,1005.79
2018-08-09T11:02:24.192Z,1005.78
2018-08-09T11:03:32.840Z,1005.76
2018-08-09T11:04:41.759Z,1005.7
2018-08-09T11:05:50.407Z,1005.75
2018-08-09T11:06:59.071Z,1005.84
2018-08-09T11:08:07.977Z,1005.81
2018-08-09T11:09:16.896Z,1005.81
2018-08-09T11:10:25.805Z,1005.78
2018-08-09T11:11:34.469Z,1005.83
2018-08-09T11:12:43.649Z,1005.84
2018-08-09T11:13:52.822Z,1005.81
2018-08-09T11:15:01.484Z,1005.77
2018-08-09T11:16:10.129Z,1005.76
2018-08-09T11:17:19.058Z,1005.69
2018-08-09T11:18:27.980Z,1005.67
2018-08-09T11:19:36.636Z,1005.64
2018-08-09T11:20:45.545Z,1005.6
2018-08-09T11:21:54.205Z,1005.57
2018-08-09T11:23:02.856Z,1005.55
2018-08-09T11:24:11.513Z,1005.54
2018-08-09T11:25:20.158Z,1005.54
2018-08-09T11:26:28.821Z,1005.53
2018-08-09T11:27:37.474Z,1005.5
2018-08-09T11:28:46.393Z,1005.45
2018-08-09T11:29:55.038Z,1005.45
2018-08-09T11:31:03.694Z,1005.41
2018-08-09T11:32:12.357Z,1005.33
2018-08-09T11:33:21.011Z,1005.28
2018-08-09T11:34:29.667Z,1005.24
2018-08-09T11:35:38.317Z,1005.2
2018-08-09T11:36:46.980Z,1005.21
2018-08-09T11:37:55.634Z,1005.17
2018-08-09T11:39:04.294Z,1005.09
2018-08-09T11:40:12.944Z,1005.09
2018-08-09T11:41:21.598Z,1005.08
2018-08-09T11:42:30.251Z,1005.05
2018-08-09T11:43:38.906Z,1005.03
2018-08-09T11:44:47.817Z,1005.01
2018-08-09T11:45:56.485Z,1005
2018-08-09T11:47:05.144Z,1004.97
2018-08-09T11:48:13.803Z,1004.88
2018-08-09T11:49:22.463Z,1004.85
2018-08-09T11:50:31.114Z,1004.81
2018-08-09T11:51:40.107Z,1004.73
2018-08-09T11:52:48.760Z,1004.68
2018-08-09T11:53:57.968Z,1004.7
2018-08-09T11:55:06.624Z,1004.67
2018-08-09T11:56:15.399Z,1004.65
2018-08-09T11:57:23.928Z,1004.7
2018-08-09T11:58:32.859Z,1004.64
2018-08-09T11:59:42.080Z,1004.61
2018-08-09T12:00:50.740Z,1004.58
2018-08-09T12:01:59.380Z,1004.56
2018-08-09T12:03:08.040Z,1004.59
2018-08-09T12:04:16.692Z,1004.56
2018-08-09T12:05:25.349Z,1004.53
2018-08-09T12:06:33.998Z,1004.5
2018-08-09T12:07:42.657Z,1004.51
2018-08-09T12:08:51.309Z,1004.45
2018-08-09T12:09:59.975Z,1004.39
2018-08-09T12:11:08.621Z,1004.44
2018-08-09T12:12:17.269Z,1004.37
2018-08-09T12:13:26.190Z,1004.32
2018-08-09T12:14:34.842Z,1004.25
2018-08-09T12:15:43.502Z,1004.15
2018-08-09T12:16:52.677Z,1004.1
2018-08-09T12:18:01.335Z,1004.06
2018-08-09T12:19:09.987Z,1004.02
2018-08-09T12:20:18.650Z,1003.97
2018-08-09T12:21:27.296Z,1003.95
2018-08-09T12:22:36.226Z,1003.92
2018-08-09T12:23:44.878Z,1003.97
2018-08-09T12:24:53.535Z,1003.92
2018-08-09T12:26:02.189Z,1003.83
2018-08-09T12:27:10.842Z,1003.8
2018-08-09T12:28:19.494Z,1003.73
2018-08-09T12:29:28.149Z,1003.72
2018-08-09T12:30:36.808Z,1003.75
2018-08-09T12:31:45.465Z,1003.64
2018-08-09T12:32:54.115Z,1003.6
2018-08-09T12:34:02.780Z,1003.54
2018-08-09T12:35:11.687Z,1003.56
2018-08-09T12:36:20.349Z,1003.52
2018-08-09T12:37:28.996Z,1003.51
2018-08-09T12:38:37.659Z,1003.49
2018-08-09T12:39:46.304Z,1003.46
2018-08-09T12:40:54.963Z,1003.33
2018-08-09T12:42:03.882Z,1003.35
2018-08-09T12:43:12.549Z,1003.36
2018-08-09T12:44:21.202Z,1003.34
2018-08-09T12:45:29.863Z,1003.36
2018-08-09T12:46:38.855Z,1003.24
2018-08-09T12:47:47.506Z,1003.37
2018-08-09T12:48:56.169Z,1003.28
2018-08-09T12:50:04.821Z,1003.2
2018-08-09T12:51:13.484Z,1003.13
2018-08-09T12:52:22.130Z,1003.08
2018-08-09T12:53:30.800Z,1002.99
2018-08-09T12:54:39.445Z,1002.98
2018-08-09T12:55:48.103Z,1003.02
2018-08-09T12:56:56.749Z,1002.96
2018-08-09T12:58:05.678Z,1002.93
2018-08-09T12:59:14.597Z,1002.94
2018-08-09T13:00:23.529Z,1002.9
2018-08-09T13:01:32.174Z,1002.84
2018-08-09T13:02:40.832Z,1002.88
2018-08-09T13:03:49.494Z,1002.83
2018-08-09T13:04:58.153Z,1002.92
2018-08-09T13:06:06.810Z,1002.94
2018-08-09T13:07:15.452Z,1002.93
2018-08-09T13:08:24.160Z,1002.84
2018-08-09T13:09:32.762Z,1002.8
2018-08-09T13:10:41.693Z,1002.84
2018-08-09T13:11:50.606Z,1002.85
2018-08-09T13:12:59.265Z,1002.8
2018-08-09T13:14:07.918Z,1002.71
2018-08-09T13:15:16.580Z,1002.69
2018-08-09T13:16:25.225Z,1002.62
2018-08-09T13:17:33.881Z,1002.62
2018-08-09T13:18:43.060Z,1002.53
2018-08-09T13:19:51.729Z,1002.46
2018-08-09T13:21:00.381Z,1002.45
2018-08-09T13:22:09.031Z,1002.48
2018-08-09T13:23:17.982Z,1002.47
2018-08-09T13:24:26.986Z,1002.48
2018-08-09T13:25:35.644Z,1002.38
2018-08-09T13:26:44.293Z,1002.37
2018-08-09T13:27:52.954Z,1002.26
2018-08-09T13:29:01.597Z,1002.3
2018-08-09T13:30:10.303Z,1002.27
2018-08-09T13:31:19.190Z,1002.21
2018-08-09T13:32:28.114Z,1002.2
2018-08-09T13:33:36.770Z,1002.2
2018-08-09T13:34:45.789Z,1002.1
2018-08-09T13:35:54.443Z,1002.07
2018-08-09T13:37:03.100Z,1002.02
2018-08-09T13:38:11.749Z,1001.92
2018-08-09T13:39:20.403Z,1001.87
2018-08-09T13:40:29.320Z,1001.81
2018-08-09T13:41:37.975Z,1001.79
2018-08-09T13:42:46.630Z,1001.7
2018-08-09T13:43:55.282Z,1001.67
2018-08-09T13:45:03.936Z,1001.58
2018-08-09T13:46:12.591Z,1001.57
2018-08-09T13:47:21.514Z,1001.59
2018-08-09T13:48:30.168Z,1001.55
2018-08-09T13:49:39.091Z,1001.53
2018-08-09T13:50:47.738Z,1001.5
2018-08-09T13:51:56.661Z,1001.47
2018-08-09T13:53:05.314Z,1001.42
2018-08-09T13:54:13.970Z,1001.41